sensor_id;sensor_type;location;lat;lon;timestamp;pressure;altitude;pressure_sealevel;temperature;humidity
11268;BME280;72685;47.474;9.416;2024-01-30T00:02:08;96940.41;;;-0.60;100.00
11268;BME280;72685;47.474;9.416;2024-01-30T00:04:33;96932.50;;;-0.73;100.00
11268;BME280;72685;47.474;9.416;2024-01-30T00:06:59;96937.34;;;-0.83;100.00
11268;BME280;72685;47.474;9.416;2024-01-30T00:09:24;96935.91;;;-0.86;100.00
11268;BME280;72685;47.474;9.416;2024-01-30T00:11:49;96934.47;;;-0.95;100.00
11268;BME280;72685;47.474;9.416;2024-01-30T00:14:15;96932.06;;;-0.96;100.00
11268;BME280;72685;47.474;9.416;2024-01-30T00:16:40;96933.47;;;-0.94;100.00
11268;BME280;72685;47.474;9.416;2024-01-30T00:19:06;96941.38;;;-0.87;100.00
11268;BME280;72685;47.474;9.416;2024-01-30T00:21:33;96934.50;;;-0.82;100.00
11268;BME280;72685;47.474;9.416;2024-01-30T00:23:59;96935.75;;;-0.78;100.00
11268;BME280;72685;47.474;9.416;2024-01-30T00:26:24;96939.97;;;-0.70;100.00
11268;BME280;72685;47.474;9.416;2024-01-30T00:28:49;96945.47;;;-0.59;100.00
11268;BME280;72685;47.474;9.416;2024-01-30T00:31:15;96948.13;;;-0.52;100.00
11268;BME280;72685;47.474;9.416;2024-01-30T00:33:41;96943.84;;;-0.60;100.00
11268;BME280;72685;47.474;9.416;2024-01-30T00:36:08;96946.06;;;-0.63;100.00
11268;BME280;72685;47.474;9.416;2024-01-30T00:38:33;96944.66;;;-0.59;100.00
11268;BME280;72685;47.474;9.416;2024-01-30T00:40:59;96949.09;;;-0.60;100.00
11268;BME280;72685;47.474;9.416;2024-01-30T00:43:24;96945.63;;;-0.67;100.00
11268;BME280;72685;47.474;9.416;2024-01-30T00:45:52;96953.34;;;-0.65;100.00
11268;BME280;72685;47.474;9.416;2024-01-30T00:48:18;96947.28;;;-0.66;100.00
11268;BME280;72685;47.474;9.416;2024-01-30T00:50:43;96945.63;;;-0.67;100.00
11268;BME280;72685;47.474;9.416;2024-01-30T00:53:08;96942.63;;;-0.64;100.00
11268;BME280;72685;47.474;9.416;2024-01-30T00:55:34;96941.84;;;-0.64;100.00
11268;BME280;72685;47.474;9.416;2024-01-30T00:58:00;96946.47;;;-0.60;100.00
11268;BME280;72685;47.474;9.416;2024-01-30T01:00:26;96938.19;;;-0.57;100.00
11268;BME280;72685;47.474;9.416;2024-01-30T01:02:55;96936.19;;;-0.55;100.00
11268;BME280;72685;47.474;9.416;2024-01-30T01:05:20;96938.81;;;-0.55;100.00
11268;BME280;72685;47.474;9.416;2024-01-30T01:07:46;96940.81;;;-0.57;100.00
11268;BME280;72685;47.474;9.416;2024-01-30T01:10:13;96933.97;;;-0.58;100.00
11268;BME280;72685;47.474;9.416;2024-01-30T01:12:39;96942.63;;;-0.57;100.00
11268;BME280;72685;47.474;9.416;2024-01-30T01:15:05;96942.63;;;-0.57;100.00
11268;BME280;72685;47.474;9.416;2024-01-30T01:17:31;96940.81;;;-0.63;100.00
11268;BME280;72685;47.474;9.416;2024-01-30T01:19:57;96950.88;;;-0.67;100.00
11268;BME280;72685;47.474;9.416;2024-01-30T01:22:22;96940.19;;;-0.72;100.00
11268;BME280;72685;47.474;9.416;2024-01-30T01:24:48;96939.78;;;-0.69;100.00
11268;BME280;72685;47.474;9.416;2024-01-30T01:27:13;96940.19;;;-0.72;100.00
11268;BME280;72685;47.474;9.416;2024-01-30T01:29:38;96940.19;;;-0.72;100.00
11268;BME280;72685;47.474;9.416;2024-01-30T01:32:04;96939.78;;;-0.69;100.00
11268;BME280;72685;47.474;9.416;2024-01-30T01:34:29;96944.47;;;-0.64;100.00
11268;BME280;72685;47.474;9.416;2024-01-30T01:36:55;96948.25;;;-0.73;100.00
11268;BME280;72685;47.474;9.416;2024-01-30T01:39:21;96944.84;;;-0.74;100.00
11268;BME280;72685;47.474;9.416;2024-01-30T01:41:47;96939.38;;;-0.72;100.00
11268;BME280;72685;47.474;9.416;2024-01-30T01:44:13;96941.81;;;-0.71;100.00
11268;BME280;72685;47.474;9.416;2024-01-30T01:46:38;96942.81;;;-0.72;100.00
11268;BME280;72685;47.474;9.416;2024-01-30T01:49:05;96950.28;;;-0.69;100.00
11268;BME280;72685;47.474;9.416;2024-01-30T01:51:33;96944.44;;;-0.71;100.00
11268;BME280;72685;47.474;9.416;2024-01-30T01:54:01;96947.47;;;-0.67;100.00
11268;BME280;72685;47.474;9.416;2024-01-30T01:56:29;96945.84;;;-0.68;100.00
11268;BME280;72685;47.474;9.416;2024-01-30T01:58:55;96946.25;;;-0.71;100.00
11268;BME280;72685;47.474;9.416;2024-01-30T02:01:24;96943.00;;;-0.73;100.00
11268;BME280;72685;47.474;9.416;2024-01-30T02:03:50;96948.25;;;-0.73;100.00
11268;BME280;72685;47.474;9.416;2024-01-30T02:06:15;96948.66;;;-0.76;100.00
11268;BME280;72685;47.474;9.416;2024-01-30T02:08:41;96955.13;;;-0.72;100.00
11268;BME280;72685;47.474;9.416;2024-01-30T02:11:07;96952.47;;;-0.79;100.00
11268;BME280;72685;47.474;9.416;2024-01-30T02:13:33;96941.81;;;-0.77;100.00
11268;BME280;72685;47.474;9.416;2024-01-30T02:15:59;96945.81;;;-0.88;100.00
11268;BME280;72685;47.474;9.416;2024-01-30T02:18:25;96948.25;;;-0.86;100.00
11268;BME280;72685;47.474;9.416;2024-01-30T02:20:53;96952.28;;;-0.77;100.00
11268;BME280;72685;47.474;9.416;2024-01-30T02:23:20;96953.28;;;-0.78;100.00
11268;BME280;72685;47.474;9.416;2024-01-30T02:25:45;96946.81;;;-0.82;100.00
11268;BME280;72685;47.474;9.416;2024-01-30T02:28:11;96947.44;;;-0.80;100.00
11268;BME280;72685;47.474;9.416;2024-01-30T02:30:40;96938.97;;;-0.69;100.00
11268;BME280;72685;47.474;9.416;2024-01-30T02:33:07;96934.38;;;-0.67;100.00
11268;BME280;72685;47.474;9.416;2024-01-30T02:35:33;96932.94;;;-0.63;100.00
11268;BME280;72685;47.474;9.416;2024-01-30T02:37:59;96932.91;;;-0.70;100.00
11268;BME280;72685;47.474;9.416;2024-01-30T02:40:24;96937.16;;;-0.75;100.00
11268;BME280;72685;47.474;9.416;2024-01-30T02:42:50;96933.50;;;-0.81;100.00
11268;BME280;72685;47.474;9.416;2024-01-30T02:45:15;96930.88;;;-0.87;100.00
11268;BME280;72685;47.474;9.416;2024-01-30T02:47:41;96933.72;;;-0.76;100.00
11268;BME280;72685;47.474;9.416;2024-01-30T02:50:06;96937.56;;;-0.78;100.00
11268;BME280;72685;47.474;9.416;2024-01-30T02:52:32;96927.66;;;-0.76;100.00
11268;BME280;72685;47.474;9.416;2024-01-30T02:54:57;96926.47;;;-0.80;100.00
11268;BME280;72685;47.474;9.416;2024-01-30T02:57:23;96923.59;;;-0.85;100.00
11268;BME280;72685;47.474;9.416;2024-01-30T02:59:48;96926.84;;;-0.83;100.00
11268;BME280;72685;47.474;9.416;2024-01-30T03:02:13;96922.00;;;-0.80;100.00
11268;BME280;72685;47.474;9.416;2024-01-30T03:04:41;96921.00;;;-0.79;100.00
11268;BME280;72685;47.474;9.416;2024-01-30T03:07:06;96922.00;;;-0.73;100.00
11268;BME280;72685;47.474;9.416;2024-01-30T03:09:32;96916.00;;;-0.67;100.00
11268;BME280;72685;47.474;9.416;2024-01-30T03:11:57;96911.75;;;-0.68;100.00
11268;BME280;72685;47.474;9.416;2024-01-30T03:14:22;96913.56;;;-0.69;100.00
11268;BME280;72685;47.474;9.416;2024-01-30T03:16:48;96911.13;;;-0.70;100.00
11268;BME280;72685;47.474;9.416;2024-01-30T03:19:13;96910.13;;;-0.69;100.00
11268;BME280;72685;47.474;9.416;2024-01-30T03:21:38;96910.91;;;-0.75;100.00
11268;BME280;72685;47.474;9.416;2024-01-30T03:24:04;96910.09;;;-0.76;100.00
11268;BME280;72685;47.474;9.416;2024-01-30T03:26:29;96918.59;;;-0.80;100.00
11268;BME280;72685;47.474;9.416;2024-01-30T03:28:55;96922.41;;;-0.76;100.00
11268;BME280;72685;47.474;9.416;2024-01-30T03:31:20;96915.75;;;-0.79;100.00
11268;BME280;72685;47.474;9.416;2024-01-30T03:33:46;96915.97;;;-0.74;100.00
11268;BME280;72685;47.474;9.416;2024-01-30T03:36:11;96914.53;;;-0.76;100.00
11268;BME280;72685;47.474;9.416;2024-01-30T03:38:36;96907.69;;;-0.77;100.00
11268;BME280;72685;47.474;9.416;2024-01-30T03:41:02;96916.16;;;-0.75;100.00
11268;BME280;72685;47.474;9.416;2024-01-30T03:43:28;96910.31;;;-0.77;100.00
11268;BME280;72685;47.474;9.416;2024-01-30T03:45:53;96909.69;;;-0.79;100.00
11268;BME280;72685;47.474;9.416;2024-01-30T03:48:19;96913.72;;;-0.83;100.00
11268;BME280;72685;47.474;9.416;2024-01-30T03:50:45;96902.81;;;-0.87;100.00
11268;BME280;72685;47.474;9.416;2024-01-30T03:53:10;96904.03;;;-0.83;100.00
11268;BME280;72685;47.474;9.416;2024-01-30T03:55:35;96906.88;;;-0.78;100.00
11268;BME280;72685;47.474;9.416;2024-01-30T03:58:01;96903.63;;;-0.86;100.00
11268;BME280;72685;47.474;9.416;2024-01-30T04:00:26;96902.81;;;-0.87;100.00
11268;BME280;72685;47.474;9.416;2024-01-30T04:02:52;96901.41;;;-0.83;100.00
11268;BME280;72685;47.474;9.416;2024-01-30T04:05:17;96904.25;;;-0.84;100.00
11268;BME280;72685;47.474;9.416;2024-01-30T04:07:42;96901.22;;;-0.81;100.00
11268;BME280;72685;47.474;9.416;2024-01-30T04:10:09;96900.63;;;-0.83;100.00
11268;BME280;72685;47.474;9.416;2024-01-30T04:12:35;96902.41;;;-0.90;100.00
11268;BME280;72685;47.474;9.416;2024-01-30T04:15:01;96901.41;;;-0.89;100.00
11268;BME280;72685;47.474;9.416;2024-01-30T04:17:26;96905.84;;;-0.90;100.00
11268;BME280;72685;47.474;9.416;2024-01-30T04:19:53;96903.81;;;-0.88;100.00
11268;BME280;72685;47.474;9.416;2024-01-30T04:22:18;96899.81;;;-0.84;100.00
11268;BME280;72685;47.474;9.416;2024-01-30T04:24:44;96899.00;;;-0.84;100.00
11268;BME280;72685;47.474;9.416;2024-01-30T04:27:09;96898.78;;;-0.89;100.00
11268;BME280;72685;47.474;9.416;2024-01-30T04:29:34;96897.34;;;-0.92;100.00
11268;BME280;72685;47.474;9.416;2024-01-30T04:32:00;96907.03;;;-0.92;100.00
11268;BME280;72685;47.474;9.416;2024-01-30T04:34:25;96896.53;;;-0.92;100.00
11268;BME280;72685;47.474;9.416;2024-01-30T04:36:50;96893.22;;;-1.21;100.00
11268;BME280;72685;47.474;9.416;2024-01-30T04:39:16;96902.16;;;-1.09;100.00
11268;BME280;72685;47.474;9.416;2024-01-30T04:41:41;96898.78;;;-0.96;100.00
11268;BME280;72685;47.474;9.416;2024-01-30T04:44:07;96894.53;;;-0.90;100.00
11268;BME280;72685;47.474;9.416;2024-01-30T04:46:32;96902.00;;;-0.94;100.00
11268;BME280;72685;47.474;9.416;2024-01-30T04:48:59;96901.13;;;-1.08;100.00
11268;BME280;72685;47.474;9.416;2024-01-30T04:51:25;96900.53;;;-1.16;100.00
11268;BME280;72685;47.474;9.416;2024-01-30T04:53:50;96904.75;;;-1.22;100.00
11268;BME280;72685;47.474;9.416;2024-01-30T04:56:15;96905.13;;;-1.25;100.00
11268;BME280;72685;47.474;9.416;2024-01-30T04:58:41;96899.72;;;-1.10;100.00
11268;BME280;72685;47.474;9.416;2024-01-30T05:01:06;96907.56;;;-1.17;100.00
11268;BME280;72685;47.474;9.416;2024-01-30T05:03:34;96904.56;;;-1.14;100.00
11268;BME280;72685;47.474;9.416;2024-01-30T05:06:00;96911.44;;;-1.13;100.00
11268;BME280;72685;47.474;9.416;2024-01-30T05:08:25;96910.59;;;-1.13;100.00
11268;BME280;72685;47.474;9.416;2024-01-30T05:10:51;96923.69;;;-1.20;100.00
11268;BME280;72685;47.474;9.416;2024-01-30T05:13:16;96924.63;;;-1.34;100.00
11268;BME280;72685;47.474;9.416;2024-01-30T05:15:41;96925.03;;;-1.37;100.00
11268;BME280;72685;47.474;9.416;2024-01-30T05:18:07;96927.22;;;-1.47;100.00
11268;BME280;72685;47.474;9.416;2024-01-30T05:20:32;96926.44;;;-1.41;100.00
11268;BME280;72685;47.474;9.416;2024-01-30T05:22:57;96925.19;;;-1.45;100.00
11268;BME280;72685;47.474;9.416;2024-01-30T05:25:23;96927.50;;;-1.29;100.00
11268;BME280;72685;47.474;9.416;2024-01-30T05:27:49;96933.28;;;-1.40;100.00
11268;BME280;72685;47.474;9.416;2024-01-30T05:30:15;96936.53;;;-1.38;100.00
11268;BME280;72685;47.474;9.416;2024-01-30T05:32:40;96935.47;;;-1.43;100.00
11268;BME280;72685;47.474;9.416;2024-01-30T05:35:05;96941.53;;;-1.43;100.00
11268;BME280;72685;47.474;9.416;2024-01-30T05:37:33;96941.50;;;-1.49;100.00
11268;BME280;72685;47.474;9.416;2024-01-30T05:39:58;96935.06;;;-1.47;100.00
11268;BME280;72685;47.474;9.416;2024-01-30T05:42:23;96938.91;;;-1.43;100.00
11268;BME280;72685;47.474;9.416;2024-01-30T05:44:49;96946.34;;;-1.46;100.00
11268;BME280;72685;47.474;9.416;2024-01-30T05:47:15;96934.69;;;-1.44;100.00
11268;BME280;72685;47.474;9.416;2024-01-30T05:49:41;96953.78;;;-1.50;100.00
11268;BME280;72685;47.474;9.416;2024-01-30T05:52:06;96944.94;;;-1.49;100.00
11268;BME280;72685;47.474;9.416;2024-01-30T05:54:32;96948.78;;;-1.45;100.00
11268;BME280;72685;47.474;9.416;2024-01-30T05:56:57;96950.81;;;-1.47;100.00
11268;BME280;72685;47.474;9.416;2024-01-30T05:59:22;96952.25;;;-1.38;100.00
11268;BME280;72685;47.474;9.416;2024-01-30T06:01:48;96958.31;;;-1.37;100.00
11268;BME280;72685;47.474;9.416;2024-01-30T06:04:14;96952.03;;;-1.36;100.00
11268;BME280;72685;47.474;9.416;2024-01-30T06:06:40;96952.88;;;-1.36;100.00
11268;BME280;72685;47.474;9.416;2024-01-30T06:09:06;96956.50;;;-1.30;100.00
11268;BME280;72685;47.474;9.416;2024-01-30T06:11:33;96961.56;;;-1.29;100.00
11268;BME280;72685;47.474;9.416;2024-01-30T06:13:58;96967.63;;;-1.28;100.00
11268;BME280;72685;47.474;9.416;2024-01-30T06:16:24;96960.38;;;-1.26;100.00
11268;BME280;72685;47.474;9.416;2024-01-30T06:18:49;96964.72;;;-1.40;100.00
11268;BME280;72685;47.474;9.416;2024-01-30T06:21:14;96964.50;;;-1.45;100.00
11268;BME280;72685;47.474;9.416;2024-01-30T06:23:40;96958.66;;;-1.47;100.00
11268;BME280;72685;47.474;9.416;2024-01-30T06:26:06;96958.06;;;-1.42;100.00
11268;BME280;72685;47.474;9.416;2024-01-30T06:28:32;96969.19;;;-1.34;100.00
11268;BME280;72685;47.474;9.416;2024-01-30T06:30:57;96965.41;;;-1.31;100.00
11268;BME280;72685;47.474;9.416;2024-01-30T06:33:22;96965.00;;;-1.28;100.00
11268;BME280;72685;47.474;9.416;2024-01-30T06:35:48;96958.75;;;-1.27;100.00
11268;BME280;72685;47.474;9.416;2024-01-30T06:38:13;96963.97;;;-1.27;100.00
11268;BME280;72685;47.474;9.416;2024-01-30T06:40:41;96956.50;;;-1.30;100.00
11268;BME280;72685;47.474;9.416;2024-01-30T06:43:07;96953.31;;;-1.26;100.00
11268;BME280;72685;47.474;9.416;2024-01-30T06:45:33;96956.78;;;-1.19;100.00
11268;BME280;72685;47.474;9.416;2024-01-30T06:48:00;96959.97;;;-1.23;100.00
11268;BME280;72685;47.474;9.416;2024-01-30T06:50:26;96957.78;;;-1.20;100.00
11268;BME280;72685;47.474;9.416;2024-01-30T06:52:51;96956.50;;;-1.30;100.00
11268;BME280;72685;47.474;9.416;2024-01-30T06:55:18;96962.19;;;-1.27;100.00
11268;BME280;72685;47.474;9.416;2024-01-30T06:57:43;96956.75;;;-1.25;100.00
11268;BME280;72685;47.474;9.416;2024-01-30T07:00:09;96961.81;;;-1.17;100.00
11268;BME280;72685;47.474;9.416;2024-01-30T07:02:35;96962.84;;;-1.12;100.00
11268;BME280;72685;47.474;9.416;2024-01-30T07:05:00;96964.69;;;-1.12;100.00
11268;BME280;72685;47.474;9.416;2024-01-30T07:07:25;96961.66;;;-1.09;100.00
11268;BME280;72685;47.474;9.416;2024-01-30T07:09:52;96961.84;;;-1.11;100.00
11268;BME280;72685;47.474;9.416;2024-01-30T07:12:24;96960.06;;;-1.03;100.00
11268;BME280;72685;47.474;9.416;2024-01-30T07:14:51;96968.13;;;-1.05;100.00
11268;BME280;72685;47.474;9.416;2024-01-30T07:17:16;96966.91;;;-1.09;100.00
11268;BME280;72685;47.474;9.416;2024-01-30T07:19:42;96966.31;;;-1.04;100.00
11268;BME280;72685;47.474;9.416;2024-01-30T07:22:08;96972.38;;;-1.04;100.00
11268;BME280;72685;47.474;9.416;2024-01-30T07:24:33;96970.00;;;-0.99;100.00
11268;BME280;72685;47.474;9.416;2024-01-30T07:26:59;96979.31;;;-0.83;100.00
11268;BME280;72685;47.474;9.416;2024-01-30T07:29:24;96980.34;;;-0.78;100.00
11268;BME280;72685;47.474;9.416;2024-01-30T07:31:49;96971.69;;;-0.65;100.00
11268;BME280;72685;47.474;9.416;2024-01-30T07:34:15;96977.16;;;-0.54;100.00
11268;BME280;72685;47.474;9.416;2024-01-30T07:36:40;96978.59;;;-0.44;100.00
11268;BME280;72685;47.474;9.416;2024-01-30T07:39:06;96981.44;;;-0.39;100.00
11268;BME280;72685;47.474;9.416;2024-01-30T07:41:31;96981.06;;;-0.30;100.00
11268;BME280;72685;47.474;9.416;2024-01-30T07:43:57;96988.97;;;-0.17;100.00
11268;BME280;72685;47.474;9.416;2024-01-30T07:46:22;96979.47;;;-0.11;100.00
11268;BME280;72685;47.474;9.416;2024-01-30T07:48:47;96984.31;;;-0.02;100.00
11268;BME280;72685;47.474;9.416;2024-01-30T07:51:13;96986.34;;;-0.04;100.00
11268;BME280;72685;47.474;9.416;2024-01-30T07:53:39;96988.97;;;0.10;100.00
11268;BME280;72685;47.474;9.416;2024-01-30T07:56:05;96993.63;;;0.21;100.00
11268;BME280;72685;47.474;9.416;2024-01-30T07:58:31;96989.19;;;0.28;100.00
11268;BME280;72685;47.474;9.416;2024-01-30T08:00:56;96989.34;;;0.33;100.00
11268;BME280;72685;47.474;9.416;2024-01-30T08:03:23;96985.09;;;0.45;100.00
11268;BME280;72685;47.474;9.416;2024-01-30T08:05:49;96985.31;;;0.57;100.00
11268;BME280;72685;47.474;9.416;2024-01-30T08:08:14;96990.16;;;0.60;100.00
11268;BME280;72685;47.474;9.416;2024-01-30T08:10:40;96986.13;;;0.50;100.00
11268;BME280;72685;47.474;9.416;2024-01-30T08:13:05;96990.53;;;0.63;100.00
11268;BME280;72685;47.474;9.416;2024-01-30T08:15:31;96994.97;;;0.76;100.00
11268;BME280;72685;47.474;9.416;2024-01-30T08:17:56;96990.28;;;0.84;100.00
11268;BME280;72685;47.474;9.416;2024-01-30T08:20:24;96985.97;;;1.03;100.00
11268;BME280;72685;47.474;9.416;2024-01-30T08:22:49;96988.16;;;1.13;100.00
11268;BME280;72685;47.474;9.416;2024-01-30T08:25:15;96989.78;;;1.14;100.00
11268;BME280;72685;47.474;9.416;2024-01-30T08:27:40;96992.84;;;1.11;100.00
11268;BME280;72685;47.474;9.416;2024-01-30T08:30:09;96989.41;;;1.10;100.00
11268;BME280;72685;47.474;9.416;2024-01-30T08:32:34;96986.94;;;1.15;100.00
11268;BME280;72685;47.474;9.416;2024-01-30T08:35:00;96992.06;;;0.97;100.00
11268;BME280;72685;47.474;9.416;2024-01-30T08:37:29;96990.41;;;1.02;100.00
11268;BME280;72685;47.474;9.416;2024-01-30T08:39:54;96989.69;;;0.89;100.00
11268;BME280;72685;47.474;9.416;2024-01-30T08:42:20;96993.06;;;1.02;100.00
11268;BME280;72685;47.474;9.416;2024-01-30T08:44:51;96986.78;;;1.03;100.00
11268;BME280;72685;47.474;9.416;2024-01-30T08:47:18;96994.09;;;1.01;100.00
11268;BME280;72685;47.474;9.416;2024-01-30T08:49:44;96990.59;;;1.14;100.00
11268;BME280;72685;47.474;9.416;2024-01-30T08:52:10;96988.16;;;1.13;100.00
11268;BME280;72685;47.474;9.416;2024-01-30T08:54:36;96992.41;;;1.20;100.00
11268;BME280;72685;47.474;9.416;2024-01-30T08:57:01;96991.75;;;1.25;100.00
11268;BME280;72685;47.474;9.416;2024-01-30T08:59:27;96995.00;;;1.27;100.00
11268;BME280;72685;47.474;9.416;2024-01-30T09:01:52;96998.84;;;1.31;100.00
11268;BME280;72685;47.474;9.416;2024-01-30T09:04:21;97000.81;;;1.42;100.00
11268;BME280;72685;47.474;9.416;2024-01-30T09:06:47;96996.94;;;1.44;100.00
11268;BME280;72685;47.474;9.416;2024-01-30T09:09:13;96999.03;;;1.29;100.00
11268;BME280;72685;47.474;9.416;2024-01-30T09:11:39;97004.31;;;1.29;100.00
11268;BME280;72685;47.474;9.416;2024-01-30T09:14:05;97006.81;;;1.55;100.00
11268;BME280;72685;47.474;9.416;2024-01-30T09:16:30;97010.69;;;1.53;100.00
11268;BME280;72685;47.474;9.416;2024-01-30T09:18:55;96997.03;;;1.69;100.00
11268;BME280;72685;47.474;9.416;2024-01-30T09:21:21;97010.97;;;1.70;100.00
11268;BME280;72685;47.474;9.416;2024-01-30T09:23:46;97011.50;;;1.85;100.00
11268;BME280;72685;47.474;9.416;2024-01-30T09:26:12;97010.28;;;1.87;100.00
11268;BME280;72685;47.474;9.416;2024-01-30T09:28:38;97014.56;;;1.82;100.00
11268;BME280;72685;47.474;9.416;2024-01-30T09:31:03;97020.16;;;1.92;100.00
11268;BME280;72685;47.474;9.416;2024-01-30T09:33:29;97015.63;;;2.05;100.00
11268;BME280;72685;47.474;9.416;2024-01-30T09:35:54;97021.22;;;2.40;100.00
11268;BME280;72685;47.474;9.416;2024-01-30T09:38:20;97011.06;;;2.87;100.00
11268;BME280;72685;47.474;9.416;2024-01-30T09:40:53;97015.97;;;3.19;100.00
11268;BME280;72685;47.474;9.416;2024-01-30T09:43:22;97015.09;;;3.07;100.00
11268;BME280;72685;47.474;9.416;2024-01-30T09:45:50;97022.59;;;2.92;100.00
11268;BME280;72685;47.474;9.416;2024-01-30T09:48:15;97022.00;;;3.08;100.00
11268;BME280;72685;47.474;9.416;2024-01-30T09:50:41;97017.72;;;3.26;100.00
11268;BME280;72685;47.474;9.416;2024-01-30T09:53:08;97013.63;;;3.30;100.00
11268;BME280;72685;47.474;9.416;2024-01-30T09:55:35;97019.94;;;3.47;100.00
11268;BME280;72685;47.474;9.416;2024-01-30T09:58:01;97014.31;;;3.73;100.00
11268;BME280;72685;47.474;9.416;2024-01-30T10:00:27;97019.53;;;3.80;100.00
11268;BME280;72685;47.474;9.416;2024-01-30T10:02:53;97025.06;;;3.60;100.00
11268;BME280;72685;47.474;9.416;2024-01-30T10:05:19;97019.66;;;3.37;100.00
11268;BME280;72685;47.474;9.416;2024-01-30T10:07:54;97014.28;;;3.43;100.00
11268;BME280;72685;47.474;9.416;2024-01-30T10:10:23;97016.06;;;3.31;100.00
11268;BME280;72685;47.474;9.416;2024-01-30T10:12:49;97011.38;;;3.33;100.00
11268;BME280;72685;47.474;9.416;2024-01-30T10:15:14;97008.75;;;3.63;100.00
11268;BME280;72685;47.474;9.416;2024-01-30T10:17:40;97007.91;;;3.51;100.00
11268;BME280;72685;47.474;9.416;2024-01-30T10:20:05;97004.88;;;3.77;100.00
11268;BME280;72685;47.474;9.416;2024-01-30T10:22:32;96999.88;;;3.87;100.00
11268;BME280;72685;47.474;9.416;2024-01-30T10:24:57;97002.41;;;3.82;100.00
11268;BME280;72685;47.474;9.416;2024-01-30T10:27:25;96996.88;;;3.84;100.00
11268;BME280;72685;47.474;9.416;2024-01-30T10:29:51;96995.66;;;3.68;100.00
11268;BME280;72685;47.474;9.416;2024-01-30T10:32:17;97000.59;;;3.64;100.00
11268;BME280;72685;47.474;9.416;2024-01-30T10:34:43;97006.31;;;3.80;100.00
11268;BME280;72685;47.474;9.416;2024-01-30T10:37:10;97003.63;;;3.50;100.00
11268;BME280;72685;47.474;9.416;2024-01-30T10:39:41;97005.47;;;3.49;100.00
11268;BME280;72685;47.474;9.416;2024-01-30T10:42:15;96997.94;;;3.16;100.00
11268;BME280;72685;47.474;9.416;2024-01-30T10:45:09;97005.34;;;3.44;100.00
11268;BME280;72685;47.474;9.416;2024-01-30T10:47:35;97001.09;;;3.25;100.00
11268;BME280;72685;47.474;9.416;2024-01-30T10:50:04;96997.56;;;3.13;100.00
11268;BME280;72685;47.474;9.416;2024-01-30T10:52:31;96995.66;;;3.38;100.00
11268;BME280;72685;47.474;9.416;2024-01-30T10:54:58;97007.41;;;3.24;100.00
11268;BME280;72685;47.474;9.416;2024-01-30T10:57:24;97005.06;;;2.98;100.00
11268;BME280;72685;47.474;9.416;2024-01-30T10:59:51;97000.50;;;3.23;100.00
11268;BME280;72685;47.474;9.416;2024-01-30T11:02:18;96998.09;;;3.03;100.00
11268;BME280;72685;47.474;9.416;2024-01-30T11:04:45;97002.34;;;3.22;100.00
11268;BME280;72685;47.474;9.416;2024-01-30T11:07:17;97002.75;;;3.56;100.00
11268;BME280;72685;47.474;9.416;2024-01-30T11:09:50;97002.13;;;3.72;100.00
11268;BME280;72685;47.474;9.416;2024-01-30T11:12:16;96997.75;;;3.48;100.00
11268;BME280;72685;47.474;9.416;2024-01-30T11:14:46;97003.75;;;3.55;100.00
11268;BME280;72685;47.474;9.416;2024-01-30T11:17:11;96997.84;;;4.01;100.00
11268;BME280;72685;47.474;9.416;2024-01-30T11:19:38;96985.34;;;4.19;99.22
11268;BME280;72685;47.474;9.416;2024-01-30T11:22:03;96988.25;;;4.76;97.91
11268;BME280;72685;47.474;9.416;2024-01-30T11:24:38;96990.00;;;4.59;98.60
11268;BME280;72685;47.474;9.416;2024-01-30T11:27:08;96975.00;;;4.76;97.31
11268;BME280;72685;47.474;9.416;2024-01-30T11:29:35;96979.91;;;5.19;97.02
11268;BME280;72685;47.474;9.416;2024-01-30T11:32:00;96975.66;;;5.18;94.82
11268;BME280;72685;47.474;9.416;2024-01-30T11:34:25;96979.28;;;5.40;96.32
11268;BME280;72685;47.474;9.416;2024-01-30T11:36:53;96978.94;;;5.65;96.24
11268;BME280;72685;47.474;9.416;2024-01-30T11:39:24;96970.84;;;5.71;95.20
11268;BME280;72685;47.474;9.416;2024-01-30T11:41:50;96967.50;;;5.76;96.20
11268;BME280;72685;47.474;9.416;2024-01-30T11:44:16;96966.56;;;5.82;95.20
11268;BME280;72685;47.474;9.416;2024-01-30T11:46:42;96960.25;;;5.71;97.88
11268;BME280;72685;47.474;9.416;2024-01-30T11:49:07;96969.06;;;5.60;97.66
11268;BME280;72685;47.474;9.416;2024-01-30T11:51:33;96970.72;;;5.50;99.18
11268;BME280;72685;47.474;9.416;2024-01-30T11:53:58;96958.81;;;5.52;99.24
11268;BME280;72685;47.474;9.416;2024-01-30T11:56:24;96949.63;;;5.71;98.28
11268;BME280;72685;47.474;9.416;2024-01-30T11:58:50;96953.72;;;5.91;99.21
11268;BME280;72685;47.474;9.416;2024-01-30T12:01:17;96948.53;;;5.96;97.46
11268;BME280;72685;47.474;9.416;2024-01-30T12:03:43;96939.78;;;6.12;97.95
11268;BME280;72685;47.474;9.416;2024-01-30T12:06:15;96940.72;;;6.22;95.53
11268;BME280;72685;47.474;9.416;2024-01-30T12:08:41;96935.19;;;6.07;96.64
11268;BME280;72685;47.474;9.416;2024-01-30T12:11:07;96943.88;;;6.36;95.27
11268;BME280;72685;47.474;9.416;2024-01-30T12:13:32;96934.78;;;5.99;96.30
11268;BME280;72685;47.474;9.416;2024-01-30T12:15:58;96934.06;;;5.75;98.10
11268;BME280;72685;47.474;9.416;2024-01-30T12:18:24;96925.19;;;5.98;95.50
11268;BME280;72685;47.474;9.416;2024-01-30T12:20:59;96922.72;;;6.08;93.99
11268;BME280;72685;47.474;9.416;2024-01-30T12:23:26;96927.13;;;6.35;95.94
11268;BME280;72685;47.474;9.416;2024-01-30T12:25:52;96925.75;;;6.50;94.69
11268;BME280;72685;47.474;9.416;2024-01-30T12:28:18;96929.88;;;6.57;94.67
11268;BME280;72685;47.474;9.416;2024-01-30T12:30:43;96930.44;;;6.43;95.69
11268;BME280;72685;47.474;9.416;2024-01-30T12:33:08;96932.75;;;6.39;97.24
11268;BME280;72685;47.474;9.416;2024-01-30T12:35:35;96935.25;;;6.46;97.47
11268;BME280;72685;47.474;9.416;2024-01-30T12:38:00;96929.66;;;6.64;97.54
11268;BME280;72685;47.474;9.416;2024-01-30T12:40:26;96926.34;;;6.73;97.95
11268;BME280;72685;47.474;9.416;2024-01-30T12:42:52;96920.19;;;6.89;95.55
11268;BME280;72685;47.474;9.416;2024-01-30T12:45:17;96921.63;;;6.97;95.25
11268;BME280;72685;47.474;9.416;2024-01-30T12:47:46;96922.56;;;7.08;93.40
11268;BME280;72685;47.474;9.416;2024-01-30T12:50:12;96915.50;;;6.97;94.68